ENEV/EVE METAR and TAF weather

Enter ICAO airport designator
Station Type Date Time Source
ENEV METAR 2019/10/20 18:50 UTC NOAA

ENEV 201850Z 17004KT 150V220 9999 BKN039 02/M06 Q1013 RMK WIND 1400FT 21017KT


Station Type Date Time Source
ENEV Decoded METAR 2019/10/20 18:50 UTC NOAA

Evenes, Norway (ENEV) 68-31N 016-41E 26M
Oct 20, 2019 - 02:50 PM EDT / 2019.10.20 1850 UTC
Wind: from the S (170 degrees) at 5 MPH (4 KT) (direction variable):0
Visibility: greater than 7 mile(s):0
Sky conditions: mostly cloudy
Temperature: 35 F (2 C)
Windchill: 30 F (-1 C):1
Dew Point: 21 F (-6 C)
Relative Humidity: 55%
Pressure (altimeter): 29.91 in. Hg (1013 hPa)
ob: ENEV 201850Z 17004KT 150V220 9999 BKN039 02/M06 Q1013 RMK WIND 1400FT 21017KT
cycle: 19

Station Type Date Time Source
ENEV TAF 2010/02/05 07:50 UTC NOAA

METAR ENEV 050750Z 14007KT 9999 FEW040 SCT055 M04/M09 Q1019

Example: see airport list